createdAt,value
2018-03-22T00:16:03.928Z,-0.38
2018-03-22T00:36:38.892Z,-0.66
2018-03-22T00:57:18.156Z,-0.69
2018-03-22T01:17:52.508Z,-1.10
2018-03-22T01:38:26.551Z,-1.04
2018-03-22T01:58:57.828Z,-1.18
2018-03-22T02:19:30.951Z,-1.06
2018-03-22T02:40:04.381Z,-0.89
2018-03-22T03:00:35.348Z,-0.56
2018-03-22T03:21:07.551Z,-0.51
2018-03-22T03:41:40.989Z,-0.37
2018-03-22T04:02:14.097Z,-0.73
2018-03-22T04:22:50.291Z,-0.14
2018-03-22T04:43:24.642Z,-0.03
2018-03-22T05:03:59.611Z,0.14
2018-03-22T05:24:33.035Z,0.12
2018-03-22T05:45:08.307Z,0.19
2018-03-22T06:05:40.506Z,0.33
2018-03-22T06:26:12.699Z,0.61
2018-03-22T06:46:43.981Z,1.04
2018-03-22T07:07:18.024Z,1.47
2018-03-22T07:27:50.226Z,2.25
2018-03-22T07:48:22.426Z,2.66
2018-03-22T08:08:56.473Z,3.07
2018-03-22T08:29:31.151Z,3.43
2018-03-22T08:50:05.172Z,3.41
2018-03-22T09:10:38.294Z,3.35
2018-03-22T09:31:16.332Z,3.13
2018-03-22T09:51:47.617Z,3.16
2018-03-22T10:12:21.952Z,3.06
2018-03-22T10:32:58.494Z,3.02
2018-03-22T10:53:34.341Z,3.17
2018-03-22T11:14:11.765Z,3.43
2018-03-22T11:34:47.960Z,3.53
2018-03-22T11:55:24.464Z,3.47
2018-03-22T12:16:00.701Z,3.52
2018-03-22T12:36:34.692Z,3.56
2018-03-22T12:57:17.031Z,3.64
2018-03-22T13:17:50.441Z,3.97
2018-03-22T13:38:22.361Z,4.01
2018-03-22T13:58:56.851Z,4.18
2018-03-22T14:19:29.826Z,4.31
2018-03-22T14:40:06.638Z,4.12
2018-03-22T15:00:41.289Z,4.12
2018-03-22T15:42:09.957Z,4.22
2018-03-22T16:02:43.078Z,4.33
2018-03-22T16:23:22.659Z,4.76
2018-03-22T16:43:56.695Z,4.80
2018-03-22T17:04:33.806Z,4.54
2018-03-22T17:25:11.372Z,4.27
2018-03-22T17:45:46.603Z,4.18
2018-03-22T18:06:22.393Z,4.07
2018-03-22T18:26:52.751Z,4.00
2018-03-22T18:47:25.874Z,3.94
2018-03-22T19:08:00.452Z,3.91
2018-03-22T19:28:32.419Z,3.81
2018-03-22T19:49:06.874Z,3.68
2018-03-22T20:09:40.815Z,3.76
2018-03-22T20:30:16.373Z,4.05
2018-03-22T20:50:49.217Z,3.86
2018-03-22T21:11:24.480Z,3.93
2018-03-22T21:32:01.005Z,3.58
2018-03-22T21:52:49.153Z,3.73
2018-03-22T22:13:26.276Z,3.70
2018-03-22T22:34:00.615Z,3.73
2018-03-22T22:54:36.810Z,3.51
2018-03-22T23:15:13.320Z,3.49
2018-03-22T23:35:50.560Z,3.51
2018-03-22T23:56:22.631Z,3.49
